Time;durP1;ratioP1;P1;durP2;ratioP2;P2;SDS_P1;SDS_P2;PMS_P1;PMS_P2;Temp;Humidity;BMP_temperature;BMP_pressure;BME280_temperature;BME280_humidity;BME280_pressure;Samples;Min_cycle;Max_cycle;Signal;HPM_P1;HPM_P2
2022/05/23 00:02:27;;;;;;;3.53;1.50;;;12.30;99.90;;;;;;5046274;28;20210;-53
2022/05/23 00:04:54;;;;;;;1.80;1.20;;;12.30;99.90;;;;;;5050379;28;20567;-49
2022/05/23 00:07:27;;;;;;;3.07;1.70;;;12.30;99.90;;;;;;5056813;28;20214;-51
2022/05/23 00:09:53;;;;;;;3.60;1.50;;;12.30;99.90;;;;;;5056574;28;20214;-53
2022/05/23 00:12:22;;;;;;;2.43;1.40;;;12.30;99.90;;;;;;5054977;28;20194;-52
2022/05/23 00:14:50;;;;;;;4.53;1.60;;;12.30;99.90;;;;;;5049068;28;20197;-49
2022/05/23 00:17:17;;;;;;;3.67;1.70;;;12.30;99.90;;;;;;5049867;28;20253;-51
2022/05/23 00:19:46;;;;;;;9.90;2.40;;;12.30;99.90;;;;;;5043616;28;20490;-48
2022/05/23 00:22:14;;;;;;;1.57;1.27;;;12.30;99.90;;;;;;5052867;28;20208;-49
2022/05/23 00:24:42;;;;;;;2.67;1.50;;;12.30;99.90;;;;;;5039846;28;20261;-48
2022/05/23 00:27:11;;;;;;;2.80;1.37;;;12.30;99.90;;;;;;5049989;28;20219;-47
2022/05/23 00:29:38;;;;;;;1.90;1.20;;;12.30;99.90;;;;;;5047408;28;20203;-48
2022/05/23 00:37:37;;;;;;;3.33;1.60;;;12.30;99.90;;;;;;5056027;28;20202;-48
2022/05/23 00:40:04;;;;;;;5.67;2.00;;;12.30;99.90;;;;;;5052803;28;20556;-48
2022/05/23 00:45:19;;;;;;;1.30;1.20;;;12.30;99.90;;;;;;5046987;28;20203;-48
2022/05/23 00:47:48;;;;;;;3.00;1.50;;;12.30;99.90;;;;;;5050035;28;20218;-47
2022/05/23 00:50:19;;;;;;;2.77;1.20;;;12.30;99.90;;;;;;5039950;28;20326;-49
2022/05/23 00:52:51;;;;;;;2.57;1.03;;;12.20;99.90;;;;;;5055798;28;20266;-46
2022/05/23 00:55:24;;;;;;;2.83;1.40;;;12.20;99.90;;;;;;5053633;28;20206;-48
2022/05/23 00:57:56;;;;;;;1.87;1.20;;;12.10;99.90;;;;;;5043133;28;20996;-49
2022/05/23 01:00:23;;;;;;;7.37;1.47;;;12.20;99.90;;;;;;5048293;28;20214;-50
2022/05/23 01:02:54;;;;;;;3.63;1.30;;;12.10;99.90;;;;;;5044792;28;20329;-48
2022/05/23 01:05:24;;;;;;;3.43;1.43;;;12.00;99.90;;;;;;5039104;28;20211;-56
2022/05/23 01:07:53;;;;;;;2.70;1.40;;;;;;;;;;5044623;28;20211;-48
2022/05/23 01:10:20;;;;;;;2.13;1.20;;;11.90;99.90;;;;;;5052620;28;20215;-52
2022/05/23 01:12:55;;;;;;;1.93;1.67;;;11.80;99.90;;;;;;5054586;28;20187;-48
2022/05/23 01:15:25;;;;;;;2.50;1.60;;;11.80;99.90;;;;;;5052647;28;20195;-52
2022/05/23 01:17:52;;;;;;;2.07;1.70;;;11.80;99.90;;;;;;5051532;28;20783;-52
2022/05/23 01:20:20;;;;;;;2.40;1.33;;;11.80;99.90;;;;;;5040771;28;20235;-49
2022/05/23 01:22:55;;;;;;;4.53;1.47;;;11.80;99.90;;;;;;5039942;28;20980;-51
2022/05/23 01:25:48;;;;;;;4.20;1.47;;;11.80;99.90;;;;;;5050227;28;20451;-47
2022/05/23 01:28:40;;;;;;;4.93;1.60;;;11.70;99.90;;;;;;5047166;28;20350;-48
2022/05/23 01:31:11;;;;;;;6.23;1.70;;;11.70;99.90;;;;;;5047945;28;20195;-46
2022/05/23 01:33:39;;;;;;;5.37;2.00;;;11.70;99.90;;;;;;5043722;28;20207;-47
2022/05/23 01:36:10;;;;;;;3.30;1.63;;;11.80;99.90;;;;;;5047750;28;20191;-52
2022/05/23 01:38:37;;;;;;;3.90;1.37;;;11.80;99.90;;;;;;5040164;28;20242;-52
2022/05/23 01:41:12;;;;;;;1.47;1.37;;;11.80;99.90;;;;;;5052570;28;20195;-49
2022/05/23 01:43:44;;;;;;;4.57;1.63;;;11.80;99.90;;;;;;5048757;28;20191;-50
2022/05/23 01:46:24;;;;;;;5.27;1.93;;;11.80;99.90;;;;;;5044263;28;20202;-50
2022/05/23 01:49:04;;;;;;;3.23;1.67;;;11.80;99.90;;;;;;5048048;28;20273;-48
2022/05/23 01:51:31;;;;;;;2.13;1.60;;;11.80;99.90;;;;;;5054207;28;20218;-52
2022/05/23 01:53:58;;;;;;;2.77;1.57;;;11.90;99.90;;;;;;5054808;28;20690;-49
2022/05/23 01:56:26;;;;;;;3.33;1.60;;;11.90;99.90;;;;;;5052061;28;20195;-53
2022/05/23 02:01:39;;;;;;;2.37;1.60;;;11.90;99.90;;;;;;5046743;28;20462;-47
2022/05/23 02:04:06;;;;;;;4.10;1.63;;;11.90;99.90;;;;;;5044405;28;20261;-42
2022/05/23 02:06:42;;;;;;;2.20;1.60;;;11.90;99.90;;;;;;5040759;28;20218;-49
2022/05/23 02:09:26;;;;;;;3.83;1.70;;;11.90;99.90;;;;;;5044039;28;20226;-51
2022/05/23 02:12:03;;;;;;;3.47;1.80;;;11.80;99.90;;;;;;5054851;28;20195;-47
2022/05/23 02:14:33;;;;;;;5.43;1.93;;;11.80;99.90;;;;;;5044803;28;20234;-54
2022/05/23 02:17:02;;;;;;;2.03;1.73;;;11.80;99.90;;;;;;5051235;28;20297;-50
2022/05/23 02:19:32;;;;;;;3.27;1.83;;;11.80;99.90;;;;;;5046238;28;20232;-52
2022/05/23 02:22:10;;;;;;;3.03;1.77;;;11.80;99.90;;;;;;5048718;28;20207;-51
2022/05/23 02:24:38;;;;;;;5.27;1.80;;;11.80;99.90;;;;;;5038001;28;20207;-53
2022/05/23 02:27:07;;;;;;;2.90;1.60;;;11.80;99.90;;;;;;5044338;28;20219;-52
2022/05/23 02:29:38;;;;;;;2.57;1.80;;;11.80;99.90;;;;;;5039951;28;20203;-49
2022/05/23 02:32:06;;;;;;;2.67;1.63;;;11.80;99.90;;;;;;5051790;28;20329;-50
2022/05/23 02:34:34;;;;;;;3.80;1.57;;;11.80;99.90;;;;;;5033831;28;20294;-48
2022/05/23 02:37:01;;;;;;;1.87;1.67;;;11.80;99.90;;;;;;5052334;28;20215;-51
2022/05/23 02:39:41;;;;;;;1.67;1.57;;;11.80;99.90;;;;;;5046458;28;20279;-49
2022/05/23 02:42:09;;;;;;;3.10;1.57;;;11.80;99.90;;;;;;5052405;28;20208;-53
2022/05/23 02:44:38;;;;;;;2.37;1.43;;;11.80;99.90;;;;;;5037658;28;20179;-55
2022/05/23 02:47:09;;;;;;;1.77;1.30;;;11.80;99.90;;;;;;5051502;28;20706;-51
2022/05/23 02:49:39;;;;;;;1.57;1.20;;;11.80;99.90;;;;;;5040424;28;20637;-52
2022/05/23 02:52:09;;;;;;;4.90;1.63;;;11.90;99.90;;;;;;5050368;28;20656;-49
2022/05/23 02:54:55;;;;;;;3.57;1.70;;;11.80;99.90;;;;;;5052364;28;20203;-50
2022/05/23 02:57:24;;;;;;;1.47;1.37;;;11.70;99.90;;;;;;5048618;28;20231;-50
2022/05/23 02:59:52;;;;;;;1.43;1.30;;;11.70;99.90;;;;;;5051204;28;20191;-47
2022/05/23 03:05:19;;;;;;;2.20;2.00;;;11.70;99.90;;;;;;4988539;28;20204;-52
2022/05/23 03:07:46;;;;;;;6.17;1.83;;;11.60;99.90;;;;;;4980088;28;20242;-50
2022/05/23 03:10:14;;;;;;;3.77;1.53;;;11.60;99.90;;;;;;5012672;28;20711;-47
2022/05/23 03:12:42;;;;;;;2.50;1.57;;;11.70;99.90;;;;;;5040635;28;20200;-49
2022/05/23 03:15:10;;;;;;;1.80;1.70;;;11.70;99.90;;;;;;5043830;28;20299;-47
2022/05/23 03:17:39;;;;;;;2.70;1.40;;;11.60;99.90;;;;;;5042858;28;21095;-51
2022/05/23 03:20:07;;;;;;;2.33;1.60;;;11.60;99.90;;;;;;5047888;28;20195;-51
2022/05/23 03:28:07;;;;;;;2.90;1.60;;;11.50;99.90;;;;;;5047447;28;20218;-52
2022/05/23 03:30:34;;;;;;;2.33;2.13;;;11.40;99.90;;;;;;5049282;28;20230;-53
2022/05/23 03:33:01;;;;;;;3.40;1.90;;;11.40;99.90;;;;;;5051107;28;20258;-46
2022/05/23 03:35:30;;;;;;;3.27;1.70;;;11.40;99.90;;;;;;5049703;28;20631;-48
2022/05/23 03:37:58;;;;;;;1.97;1.77;;;11.40;99.90;;;;;;5061338;28;20223;-46
2022/05/23 03:40:26;;;;;;;2.43;1.90;;;11.40;99.90;;;;;;5035303;28;20207;-51
2022/05/23 03:42:57;;;;;;;2.83;1.83;;;11.40;99.90;;;;;;5051435;28;20897;-46
2022/05/23 03:45:25;;;;;;;4.47;1.90;;;11.40;99.90;;;;;;5054895;28;20687;-53
2022/05/23 03:47:54;;;;;;;3.13;1.93;;;11.40;99.90;;;;;;5050735;28;20374;-52
2022/05/23 03:50:23;;;;;;;2.57;1.77;;;11.40;99.90;;;;;;5053535;28;20223;-49
2022/05/23 03:52:51;;;;;;;1.83;1.60;;;11.40;99.90;;;;;;5048085;28;20195;-48
2022/05/23 03:55:25;;;;;;;3.07;1.80;;;11.40;99.90;;;;;;5046801;28;20241;-53
2022/05/23 03:58:10;;;;;;;1.60;1.50;;;11.40;99.90;;;;;;5057836;28;20348;-49
2022/05/23 04:00:39;;;;;;;3.13;1.90;;;11.50;99.90;;;;;;5044731;28;20191;-47
2022/05/23 04:03:05;;;;;;;2.13;1.87;;;11.50;99.90;;;;;;5049584;28;20203;-50
2022/05/23 04:05:32;;;;;;;4.67;1.87;;;11.50;99.90;;;;;;5049690;28;20819;-50
2022/05/23 04:08:07;;;;;;;2.77;1.70;;;11.50;99.90;;;;;;5049706;28;20221;-48
2022/05/23 04:10:45;;;;;;;1.80;1.70;;;11.50;99.90;;;;;;5032625;28;20215;-51
2022/05/23 04:13:14;;;;;;;2.83;1.83;;;11.50;99.90;;;;;;5047936;28;20198;-47
2022/05/23 04:15:42;;;;;;;3.30;1.60;;;11.50;99.90;;;;;;5045417;28;20226;-48
2022/05/23 04:18:10;;;;;;;4.40;2.10;;;11.50;99.90;;;;;;5043668;28;20227;-48
2022/05/23 04:20:37;;;;;;;1.93;1.73;;;11.50;99.90;;;;;;5056721;28;20192;-55
2022/05/23 04:23:09;;;;;;;4.27;1.93;;;11.50;99.90;;;;;;5043786;28;20191;-49
2022/05/23 04:25:40;;;;;;;2.10;1.30;;;11.60;99.90;;;;;;5043451;28;20728;-52
2022/05/23 04:28:07;;;;;;;5.63;1.80;;;11.60;99.90;;;;;;5057092;28;20210;-46
2022/05/23 04:30:37;;;;;;;4.07;2.20;;;11.60;99.90;;;;;;5053016;28;20305;-49
2022/05/23 04:35:54;;;;;;;2.63;1.87;;;11.70;99.90;;;;;;5041215;28;20195;-49
2022/05/23 04:38:26;;;;;;;2.50;1.87;;;11.70;99.90;;;;;;5047913;28;20227;-46
2022/05/23 04:40:55;;;;;;;6.47;1.57;;;11.70;99.90;;;;;;5034995;28;20798;-49
2022/05/23 04:43:24;;;;;;;3.50;1.83;;;11.70;99.90;;;;;;5053706;28;20245;-45
2022/05/23 04:45:50;;;;;;;2.60;1.57;;;11.70;99.90;;;;;;5042741;28;20578;-49
2022/05/23 04:51:24;;;;;;;2.27;1.30;;;11.70;99.90;;;;;;5058556;28;20223;-47
2022/05/23 04:53:54;;;;;;;3.07;1.53;;;11.70;99.90;;;;;;5048787;28;20256;-53
2022/05/23 04:56:22;;;;;;;3.63;1.60;;;11.80;99.90;;;;;;5046127;28;20202;-49
2022/05/23 04:58:55;;;;;;;1.57;1.47;;;11.80;99.90;;;;;;5050928;28;20575;-47
2022/05/23 05:01:22;;;;;;;1.87;1.67;;;11.90;99.90;;;;;;5050683;28;20196;-48
2022/05/23 05:03:55;;;;;;;1.90;1.40;;;12.00;99.90;;;;;;5046981;28;20639;-52
2022/05/23 05:06:22;;;;;;;3.30;1.60;;;12.10;99.90;;;;;;5053324;28;20207;-49
2022/05/23 05:08:50;;;;;;;2.93;1.27;;;12.20;99.90;;;;;;5045220;28;20206;-49
2022/05/23 05:11:18;;;;;;;2.17;1.47;;;12.30;99.90;;;;;;5043990;28;20211;-48
2022/05/23 05:14:06;;;;;;;2.37;1.50;;;12.40;99.90;;;;;;5045313;28;20218;-51
2022/05/23 05:16:37;;;;;;;1.30;1.20;;;12.50;99.90;;;;;;5048679;28;20226;-45
2022/05/23 05:19:05;;;;;;;3.50;1.53;;;12.60;99.90;;;;;;5055063;28;20282;-52
2022/05/23 05:21:50;;;;;;;3.17;1.23;;;12.70;99.90;;;;;;5046183;28;20206;-47
2022/05/23 05:24:32;;;;;;;2.53;1.33;;;12.80;99.90;;;;;;5044787;28;20238;-48
2022/05/23 05:27:25;;;;;;;2.73;1.50;;;12.90;99.90;;;;;;5038562;28;20234;-46
2022/05/23 05:29:53;;;;;;;2.47;1.20;;;13.00;99.90;;;;;;5045314;28;20206;-50
2022/05/23 05:32:27;;;;;;;1.40;1.23;;;13.10;99.90;;;;;;5043621;28;20203;-51
2022/05/23 05:34:59;;;;;;;1.80;1.27;;;13.20;99.90;;;;;;5039456;28;20210;-45
2022/05/23 05:37:32;;;;;;;3.80;1.20;;;13.30;99.90;;;;;;5052641;28;20214;-42
2022/05/23 05:40:02;;;;;;;3.87;1.07;;;13.40;99.90;;;;;;5034881;28;20192;-48
2022/05/23 05:42:33;;;;;;;1.90;1.27;;;13.40;99.90;;;;;;5039951;28;20295;-46
2022/05/23 05:45:04;;;;;;;2.73;1.20;;;13.50;99.90;;;;;;5039668;28;20207;-44
2022/05/23 05:47:35;;;;;;;3.60;1.00;;;13.60;99.90;;;;;;5052838;28;20844;-44
2022/05/23 05:50:12;;;;;;;1.37;1.20;;;13.70;99.90;;;;;;5052629;28;20275;-42
2022/05/23 05:52:58;;;;;;;3.80;1.57;;;13.90;99.90;;;;;;5050283;28;20370;-43
2022/05/23 05:55:25;;;;;;;2.20;1.10;;;14.00;99.90;;;;;;5045769;28;20213;-46
2022/05/23 05:57:55;;;;;;;3.90;1.10;;;14.10;99.90;;;;;;5038372;28;21812;-42
2022/05/23 06:00:22;;;;;;;5.50;1.30;;;14.20;99.90;;;;;;5056677;28;20199;-42
2022/05/23 06:02:54;;;;;;;2.20;1.47;;;14.20;99.90;;;;;;5045493;28;20282;-43
2022/05/23 06:05:23;;;;;;;3.40;1.03;;;14.30;99.90;;;;;;5054547;28;20298;-44
2022/05/23 06:13:48;;;;;;;1.43;0.90;;;14.60;99.90;;;;;;5036702;28;20210;-43
2022/05/23 06:16:34;;;;;;;1.40;0.93;;;14.60;99.90;;;;;;5047421;28;20202;-47
2022/05/23 06:19:03;;;;;;;5.23;1.13;;;14.70;99.90;;;;;;5049258;28;20210;-46
2022/05/23 06:21:35;;;;;;;1.57;1.07;;;14.80;99.90;;;;;;5052839;28;20195;-45
2022/05/23 06:24:02;;;;;;;2.63;0.83;;;14.90;99.90;;;;;;5047691;28;20762;-43
2022/05/23 06:26:36;;;;;;;1.47;1.00;;;15.00;99.90;;;;;;5043171;28;20230;-42
2022/05/23 06:29:22;;;;;;;3.20;1.00;;;15.10;99.90;;;;;;5037224;28;20360;-42
2022/05/23 06:31:48;;;;;;;1.67;1.23;;;15.20;99.90;;;;;;5050058;28;20224;-42
2022/05/23 06:34:19;;;;;;;3.67;0.87;;;15.20;99.90;;;;;;5040720;28;20294;-45
2022/05/23 06:36:51;;;;;;;3.23;1.43;;;15.30;99.90;;;;;;5059869;28;20215;-44
2022/05/23 06:39:18;;;;;;;2.13;1.00;;;15.30;99.90;;;;;;5050788;28;20191;-42
2022/05/23 06:42:16;;;;;;;0.80;0.80;;;15.40;99.90;;;;;;5043054;28;20215;-42
2022/05/23 06:45:18;;;;;;;2.35;1.10;;;15.50;99.90;;;;;;5036504;28;20509;-43
2022/05/23 06:48:23;;;;;;;3.93;1.23;;;15.60;99.90;;;;;;5042471;28;20968;-45
2022/05/23 06:51:11;;;;;;;2.63;1.07;;;15.60;99.90;;;;;;5044771;28;20219;-42
2022/05/23 06:53:47;;;;;;;1.20;0.85;;;15.70;99.90;;;;;;5046821;28;20807;-41
2022/05/23 06:56:29;;;;;;;2.13;0.98;;;15.90;99.90;;;;;;5040788;28;20486;-49
2022/05/23 06:59:01;;;;;;;1.65;1.00;;;16.00;99.90;;;;;;5038832;28;20451;-45
2022/05/23 07:01:33;;;;;;;2.13;1.00;;;16.20;99.90;;;;;;5037908;28;20513;-50
2022/05/23 07:04:18;;;;;;;4.13;1.33;;;16.40;99.90;;;;;;5042286;28;20342;-51
2022/05/23 07:12:40;;;;;;;1.40;0.80;;;16.80;99.90;;;;;;4976925;28;20780;-52
2022/05/23 07:15:09;;;;;;;1.80;0.80;;;16.80;99.90;;;;;;5015155;28;20210;-50
2022/05/23 07:17:41;;;;;;;1.00;0.87;;;16.90;99.90;;;;;;5058162;28;20227;-40
2022/05/23 07:20:18;;;;;;;1.87;0.80;;;17.00;99.90;;;;;;5051645;28;20948;-44
2022/05/23 07:23:02;;;;;;;1.33;0.80;;;17.00;99.90;;;;;;5039801;28;20203;-41
2022/05/23 07:25:32;;;;;;;1.90;0.90;;;17.10;99.90;;;;;;5053320;28;20611;-43
2022/05/23 07:28:00;;;;;;;3.53;1.00;;;17.20;99.90;;;;;;5050744;28;20294;-42
2022/05/23 07:30:28;;;;;;;2.03;1.40;;;17.20;99.90;;;;;;5055000;28;20213;-41
2022/05/23 07:32:58;;;;;;;2.93;1.20;;;17.30;99.90;;;;;;5037077;28;20566;-42
2022/05/23 07:35:46;;;;;;;2.37;1.00;;;17.40;99.90;;;;;;5053350;28;20206;-44
2022/05/23 07:38:13;;;;;;;3.43;1.27;;;17.60;99.90;;;;;;5048252;28;20223;-44
2022/05/23 07:40:43;;;;;;;2.00;1.00;;;17.60;99.90;;;;;;5056380;28;20277;-41
2022/05/23 07:43:17;;;;;;;2.53;1.00;;;17.60;99.90;;;;;;5047298;28;20203;-41
2022/05/23 07:45:45;;;;;;;1.73;1.33;;;17.60;99.90;;;;;;5050130;28;20668;-42
2022/05/23 07:48:14;;;;;;;1.90;0.90;;;17.70;99.90;;;;;;5044027;28;20327;-41
2022/05/23 07:50:45;;;;;;;3.30;1.30;;;17.70;99.90;;;;;;5055001;28;20318;-42
2022/05/23 08:01:41;;;;;;;2.23;0.90;;;17.90;99.90;;;;;;5040587;28;20204;-43
2022/05/23 08:04:09;;;;;;;1.47;1.00;;;18.00;99.90;;;;;;5033773;28;20203;-49
2022/05/23 08:06:40;;;;;;;2.60;1.03;;;18.10;99.90;;;;;;5051744;28;20612;-45
2022/05/23 08:09:09;;;;;;;1.53;1.00;;;18.10;99.90;;;;;;5043281;28;20987;-42
2022/05/23 08:11:41;;;;;;;1.77;1.10;;;18.20;99.90;;;;;;5054216;28;20214;-44
2022/05/23 08:14:13;;;;;;;2.10;0.90;;;18.30;99.90;;;;;;5041368;28;20198;-42
2022/05/23 08:16:52;;;;;;;2.73;1.10;;;18.40;99.90;;;;;;5042961;28;20590;-45
2022/05/23 08:19:29;;;;;;;1.57;1.10;;;18.60;99.50;;;;;;5052772;28;20566;-44
2022/05/23 08:22:05;;;;;;;1.43;1.33;;;18.60;99.30;;;;;;5048877;28;20252;-42
2022/05/23 08:24:34;;;;;;;2.33;1.10;;;18.80;99.40;;;;;;5047314;28;20771;-46
2022/05/23 08:27:02;;;;;;;1.27;1.17;;;18.80;98.50;;;;;;5051172;28;20579;-46
2022/05/23 08:29:31;;;;;;;2.10;0.90;;;18.80;98.30;;;;;;5051577;28;21055;-43
2022/05/23 08:32:09;;;;;;;2.40;1.30;;;18.80;97.90;;;;;;5043198;28;20233;-43
2022/05/23 08:34:41;;;;;;;3.17;0.93;;;19.00;98.20;;;;;;5044868;28;20229;-42
2022/05/23 08:37:11;;;;;;;3.83;1.10;;;19.10;97.80;;;;;;5052881;28;20306;-48
2022/05/23 08:39:38;;;;;;;3.10;1.20;;;19.10;97.60;;;;;;5063182;28;20606;-45
2022/05/23 08:42:13;;;;;;;2.93;1.07;;;19.10;97.00;;;;;;5041495;28;20354;-47
2022/05/23 08:44:53;;;;;;;2.43;1.10;;;19.20;97.60;;;;;;5050033;28;20199;-46
2022/05/23 08:47:32;;;;;;;1.77;1.10;;;19.40;97.70;;;;;;5047602;28;20226;-42
2022/05/23 08:50:11;;;;;;;1.93;1.10;;;19.40;97.40;;;;;;5033606;28;20563;-46
2022/05/23 08:52:48;;;;;;;2.37;1.23;;;19.40;97.60;;;;;;5050946;28;20226;-47
2022/05/23 08:55:34;;;;;;;3.03;1.50;;;19.50;96.70;;;;;;5049778;28;20213;-44
2022/05/23 08:58:23;;;;;;;1.30;1.20;;;19.40;96.80;;;;;;5046587;28;20223;-43
2022/05/23 09:00:56;;;;;;;3.30;1.30;;;19.40;96.80;;;;;;5045499;28;20199;-43
2022/05/23 09:03:26;;;;;;;3.87;1.40;;;19.40;96.20;;;;;;5047327;28;20196;-43
2022/05/23 09:05:57;;;;;;;1.97;1.27;;;19.60;96.50;;;;;;5044109;28;20313;-46
2022/05/23 09:08:28;;;;;;;3.97;1.20;;;19.70;96.20;;;;;;5047390;28;20285;-45
2022/05/23 09:10:58;;;;;;;2.00;1.23;;;19.80;96.30;;;;;;5045519;28;20561;-43
2022/05/23 09:13:30;;;;;;;3.47;1.40;;;19.90;96.10;;;;;;5052388;28;20234;-44
2022/05/23 09:16:04;;;;;;;4.53;1.50;;;20.00;95.70;;;;;;5049311;28;20203;-46
2022/05/23 09:18:40;;;;;;;3.87;1.70;;;20.10;96.10;;;;;;5050469;28;20644;-48
2022/05/23 09:21:09;;;;;;;3.43;1.30;;;20.20;95.40;;;;;;5039691;28;20249;-44
2022/05/23 09:23:41;;;;;;;2.07;1.13;;;20.30;95.50;;;;;;5055076;28;20195;-45
2022/05/23 09:26:16;;;;;;;2.30;1.30;;;20.30;94.80;;;;;;5049875;28;20203;-46
2022/05/23 09:28:44;;;;;;;2.70;1.47;;;20.30;94.70;;;;;;5056354;28;20213;-45
2022/05/23 09:31:22;;;;;;;1.67;1.20;;;20.50;94.70;;;;;;5041273;28;20234;-44
2022/05/23 09:33:52;;;;;;;1.93;1.13;;;20.60;94.40;;;;;;5052571;28;20277;-46
2022/05/23 09:36:31;;;;;;;2.00;1.40;;;20.60;94.50;;;;;;5041689;28;20214;-46
2022/05/23 09:39:00;;;;;;;2.07;1.60;;;20.70;93.90;;;;;;5053537;28;20225;-44
2022/05/23 09:50:07;;;;;;;2.17;1.47;;;20.90;93.60;;;;;;5047542;28;20265;-42
2022/05/23 09:52:42;;;;;;;3.10;1.60;;;21.00;92.80;;;;;;5042195;28;20706;-44
2022/05/23 09:55:12;;;;;;;2.77;1.33;;;21.00;91.90;;;;;;5050134;28;20209;-42
2022/05/23 09:57:41;;;;;;;1.70;1.60;;;21.10;91.90;;;;;;5045833;28;20276;-46
2022/05/23 10:00:27;;;;;;;2.03;1.37;;;21.10;91.30;;;;;;5055964;28;20241;-46
2022/05/23 10:03:03;;;;;;;2.37;1.57;;;21.10;90.90;;;;;;5045472;28;20319;-45
2022/05/23 10:05:32;;;;;;;3.83;1.67;;;21.10;90.60;;;;;;5049567;28;20217;-45
2022/05/23 10:08:01;;;;;;;5.20;1.60;;;21.10;90.50;;;;;;5049403;28;20214;-42
2022/05/23 10:10:30;;;;;;;2.03;1.20;;;21.20;89.80;;;;;;5052335;28;20282;-42
2022/05/23 10:13:23;;;;;;;2.07;1.30;;;21.30;89.80;;;;;;5051783;28;20218;-43
2022/05/23 10:15:54;;;;;;;4.17;1.70;;;21.30;89.60;;;;;;5048831;28;20277;-47
2022/05/23 10:18:25;;;;;;;3.87;1.60;;;21.40;88.20;;;;;;5039811;28;20227;-41
2022/05/23 10:20:52;;;;;;;3.23;1.50;;;21.40;88.20;;;;;;5041518;28;20214;-47
2022/05/23 10:23:22;;;;;;;5.60;1.93;;;21.40;86.20;;;;;;5054992;28;20198;-44
2022/05/23 10:25:57;;;;;;;4.83;1.70;;;21.40;85.10;;;;;;5039909;28;20540;-47
2022/05/23 10:28:34;;;;;;;4.07;1.63;;;21.30;84.40;;;;;;5043599;28;20240;-44
2022/05/23 10:31:09;;;;;;;3.03;1.60;;;21.40;86.00;;;;;;5043505;28;20205;-46
2022/05/23 10:33:39;;;;;;;2.27;1.60;;;21.50;83.70;;;;;;5044076;28;20199;-45
2022/05/23 10:36:11;;;;;;;2.45;1.65;;;21.50;84.50;;;;;;5055034;28;20202;-43
2022/05/23 10:44:26;;;;;;;3.77;1.80;;;21.80;82.20;;;;;;5048022;28;20194;-44
2022/05/23 10:47:04;;;;;;;2.07;1.83;;;21.80;83.30;;;;;;5051262;28;20207;-48
2022/05/23 10:49:42;;;;;;;1.97;1.80;;;21.80;82.00;;;;;;5049308;28;20263;-43
2022/05/23 10:52:20;;;;;;;1.97;1.70;;;21.80;82.80;;;;;;5043025;28;20232;-43
2022/05/23 10:54:55;;;;;;;2.97;2.00;;;22.00;82.40;;;;;;5054595;28;20925;-45
2022/05/23 10:57:33;;;;;;;3.67;1.87;;;22.10;79.60;;;;;;5050865;28;20218;-42
2022/05/23 11:00:06;;;;;;;2.67;2.20;;;22.10;80.10;;;;;;5050023;28;20213;-43
2022/05/23 11:02:51;;;;;;;2.35;1.83;;;22.10;80.20;;;;;;5045553;28;20188;-43
2022/05/23 11:05:23;;;;;;;2.38;2.00;;;22.20;77.40;;;;;;5039172;28;20214;-47
2022/05/23 11:08:06;;;;;;;2.70;1.63;;;22.10;78.00;;;;;;5044178;28;20221;-43
2022/05/23 11:10:40;;;;;;;2.30;1.65;;;22.00;78.50;;;;;;5041676;28;22765;-43
2022/05/23 11:13:17;;;;;;;2.67;1.60;;;22.10;78.10;;;;;;5047328;28;20215;-42
2022/05/23 11:16:06;;;;;;;1.93;1.60;;;22.20;78.80;;;;;;5039652;28;20205;-44
2022/05/23 11:18:59;;;;;;;2.28;2.05;;;22.30;77.50;;;;;;5048028;28;20950;-44
2022/05/23 11:21:32;;;;;;;3.28;2.03;;;22.40;76.90;;;;;;5049284;28;20202;-45
2022/05/23 11:24:06;;;;;;;4.28;1.58;;;22.40;76.80;;;;;;5038229;28;20199;-44
2022/05/23 11:26:39;;;;;;;4.35;2.22;;;22.40;76.60;;;;;;5049650;28;20286;-45
2022/05/23 11:34:45;;;;;;;1.85;1.55;;;22.50;74.90;;;;;;5050969;28;20241;-45
2022/05/23 11:40:08;;;;;;;1.65;1.35;;;22.50;74.60;;;;;;5039058;28;20990;-48
2022/05/23 11:42:55;;;;;;;6.28;1.85;;;22.60;74.80;;;;;;5052414;28;20218;-43
2022/05/23 11:49:00;;;;;;;3.90;1.88;;;22.70;73.00;;;;;;5046688;28;20742;-47
2022/05/23 11:51:41;;;;;;;1.75;1.45;;;22.80;73.50;;;;;;5055059;28;20199;-44
2022/05/23 11:54:11;;;;;;;2.85;1.63;;;22.90;73.70;;;;;;5041898;28;20206;-44
2022/05/23 11:57:05;;;;;;;2.53;1.45;;;23.00;72.80;;;;;;5053121;28;20258;-43
2022/05/23 12:00:09;;;;;;;3.95;1.60;;;23.10;73.50;;;;;;5057318;28;20299;-47
2022/05/23 12:02:41;;;;;;;5.18;1.90;;;23.10;71.60;;;;;;5051620;28;20190;-45
2022/05/23 12:05:13;;;;;;;5.57;2.20;;;23.00;71.80;;;;;;5044501;28;20207;-43
2022/05/23 12:08:01;;;;;;;2.88;1.70;;;23.10;71.40;;;;;;5046391;28;20226;-46
2022/05/23 12:10:46;;;;;;;2.85;1.50;;;23.20;70.50;;;;;;5049768;28;20292;-43
2022/05/23 12:13:52;;;;;;;3.42;1.52;;;23.30;70.40;;;;;;5045800;28;20967;-48
2022/05/23 12:16:41;;;;;;;4.55;1.50;;;23.30;70.70;;;;;;5046085;28;20203;-48
2022/05/23 12:19:53;;;;;;;1.77;1.50;;;23.40;70.90;;;;;;5037294;28;20934;-47
2022/05/23 12:22:29;;;;;;;1.75;1.60;;;23.50;69.90;;;;;;5047854;28;20191;-45
2022/05/23 12:25:23;;;;;;;2.58;1.88;;;23.60;71.90;;;;;;5033520;28;20214;-46
2022/05/23 12:28:20;;;;;;;5.97;1.50;;;23.70;69.90;;;;;;5043169;28;21035;-46
2022/05/23 12:31:11;;;;;;;2.47;1.55;;;23.70;67.90;;;;;;5033045;28;20712;-49
2022/05/23 12:33:55;;;;;;;3.28;1.73;;;23.60;68.60;;;;;;5046679;28;20582;-43
2022/05/23 12:36:26;;;;;;;4.70;1.60;;;23.60;69.10;;;;;;5032149;28;20216;-43
2022/05/23 12:39:04;;;;;;;3.67;2.33;;;23.70;69.00;;;;;;5037970;28;20290;-43
2022/05/23 12:41:46;;;;;;;2.38;1.65;;;23.80;67.00;;;;;;5037116;28;20202;-42
2022/05/23 12:44:50;;;;;;;1.70;1.58;;;23.80;68.50;;;;;;5042793;28;20210;-44
2022/05/23 12:47:32;;;;;;;1.80;1.60;;;23.80;68.30;;;;;;5054881;28;20847;-43
2022/05/23 12:50:10;;;;;;;2.15;1.40;;;24.10;66.50;;;;;;5037219;28;20210;-46
2022/05/23 12:52:52;;;;;;;4.03;1.52;;;24.30;66.60;;;;;;5052714;28;20214;-45
2022/05/23 12:55:34;;;;;;;2.42;1.50;;;24.50;66.30;;;;;;5045818;28;20210;-46
2022/05/23 12:58:26;;;;;;;7.10;1.70;;;24.70;67.20;;;;;;5036990;28;20229;-46
2022/05/23 13:00:56;;;;;;;3.20;1.73;;;24.90;65.30;;;;;;5042198;28;20277;-45
2022/05/23 13:03:29;;;;;;;3.25;1.70;;;25.20;65.40;;;;;;5046182;28;20282;-45
2022/05/23 13:06:02;;;;;;;3.63;1.77;;;25.60;64.20;;;;;;5035778;28;20846;-47
2022/05/23 13:08:39;;;;;;;3.67;2.05;;;25.90;63.50;;;;;;5050617;28;22186;-43
2022/05/23 13:11:12;;;;;;;2.70;1.42;;;25.90;63.10;;;;;;5042112;28;20939;-45
2022/05/23 13:13:43;;;;;;;5.60;1.52;;;26.10;62.40;;;;;;5034503;28;20215;-45
2022/05/23 13:16:20;;;;;;;2.38;1.58;;;26.10;61.40;;;;;;5044291;28;20203;-42
2022/05/23 13:24:48;;;;;;;4.35;1.70;;;26.40;59.80;;;;;;5051109;28;21117;-47
2022/05/23 13:27:05;;;;;;;2.63;1.55;;;26.40;59.60;;;;;;5048979;28;20222;-47
2022/05/23 13:29:34;;;;;;;4.35;1.50;;;26.70;60.90;;;;;;5034349;28;20751;-43
2022/05/23 13:32:04;;;;;;;2.15;1.65;;;26.70;59.90;;;;;;5049311;28;20219;-45
2022/05/23 13:34:35;;;;;;;2.88;1.60;;;26.60;59.10;;;;;;5044960;28;20309;-45
2022/05/23 13:37:04;;;;;;;3.28;1.77;;;26.60;58.60;;;;;;5045512;28;20298;-45
2022/05/23 13:39:30;;;;;;;3.92;1.60;;;26.70;59.20;;;;;;5044566;28;20323;-46
2022/05/23 13:41:57;;;;;;;4.47;1.42;;;26.90;59.10;;;;;;5040099;28;20191;-45
2022/05/23 13:44:26;;;;;;;1.98;1.60;;;27.00;59.10;;;;;;5040644;28;20202;-47
2022/05/23 13:47:02;;;;;;;4.72;1.98;;;;;;;;;;5040918;28;20245;-43
2022/05/23 13:49:32;;;;;;;3.38;1.30;;;;;;;;;;5050201;28;20202;-43
2022/05/23 13:52:01;;;;;;;3.05;1.88;;;;;;;;;;5043226;28;20200;-46
2022/05/23 13:54:34;;;;;;;3.47;2.08;;;;;;;;;;5043463;28;20220;-46
2022/05/23 13:57:05;;;;;;;1.90;1.60;;;;;;;;;;5041274;28;20227;-46
2022/05/23 13:59:39;;;;;;;6.55;1.73;;;27.60;56.60;;;;;;5044127;28;20746;-45
2022/05/23 14:02:13;;;;;;;2.10;1.20;;;27.60;58.40;;;;;;5046921;28;20218;-47
2022/05/23 14:04:41;;;;;;;2.05;1.40;;;27.70;57.80;;;;;;5041991;28;20642;-45
2022/05/23 14:07:11;;;;;;;5.13;1.50;;;27.90;57.80;;;;;;5049240;28;20227;-46
2022/05/23 14:09:42;;;;;;;3.28;1.40;;;28.10;55.50;;;;;;5041191;28;20202;-45
2022/05/23 14:12:12;;;;;;;1.90;1.70;;;28.00;54.50;;;;;;5040372;28;20285;-47
2022/05/23 14:14:42;;;;;;;2.33;1.80;;;28.00;54.70;;;;;;5046943;28;20234;-48
2022/05/23 14:17:17;;;;;;;1.98;1.60;;;27.80;54.50;;;;;;5053166;28;20729;-48
2022/05/23 14:19:46;;;;;;;3.17;1.67;;;27.90;53.70;;;;;;5040458;28;20206;-49
2022/05/23 14:22:20;;;;;;;2.45;1.40;;;27.80;54.70;;;;;;5046363;28;20202;-46
2022/05/23 14:24:50;;;;;;;2.80;1.55;;;28.10;54.50;;;;;;5037832;28;20210;-47
2022/05/23 14:27:21;;;;;;;3.20;1.60;;;28.30;53.50;;;;;;5044374;28;20233;-43
2022/05/23 14:30:09;;;;;;;2.75;1.70;;;28.30;54.00;;;;;;5036763;28;24518;-46
2022/05/23 14:32:37;;;;;;;3.80;2.13;;;28.30;54.80;;;;;;5041648;28;20219;-45
2022/05/23 14:35:12;;;;;;;2.40;1.58;;;28.40;53.80;;;;;;5045176;28;20595;-46
2022/05/23 14:37:42;;;;;;;1.88;1.58;;;28.60;53.70;;;;;;5052557;28;20267;-43
2022/05/23 14:40:12;;;;;;;1.75;1.65;;;28.70;53.90;;;;;;5046709;28;20291;-46